createdAt,value
2019-02-28T00:01:37.409Z,3.76
2019-02-28T00:04:07.815Z,3.76
2019-02-28T00:06:39.253Z,3.77
2019-02-28T00:09:12.321Z,3.80
2019-02-28T00:11:43.249Z,3.81
2019-02-28T00:14:14.848Z,3.80
2019-02-28T00:16:45.370Z,3.79
2019-02-28T00:19:17.915Z,3.81
2019-02-28T00:21:49.493Z,3.80
2019-02-28T00:24:20.042Z,3.81
2019-02-28T00:26:51.479Z,3.81
2019-02-28T00:29:22.026Z,3.84
2019-02-28T00:31:52.547Z,3.93
2019-02-28T00:34:23.089Z,3.96
2019-02-28T00:36:54.528Z,3.97
2019-02-28T00:39:25.068Z,3.95
2019-02-28T00:41:55.574Z,3.99
2019-02-28T00:44:30.409Z,3.94
2019-02-28T00:46:58.995Z,3.94
2019-02-28T00:49:29.337Z,3.90
2019-02-28T00:52:01.576Z,3.91
2019-02-28T00:54:32.543Z,3.91
2019-02-28T00:57:03.975Z,3.92
2019-02-28T00:59:35.444Z,3.91
2019-02-28T01:02:06.876Z,3.97
2019-02-28T01:04:38.347Z,4.01
2019-02-28T01:07:09.779Z,4.21
2019-02-28T01:09:41.251Z,4.29
2019-02-28T01:12:18.880Z,4.41
2019-02-28T01:14:44.768Z,4.47
2019-02-28T01:17:16.199Z,4.61
2019-02-28T01:19:47.669Z,4.64
2019-02-28T01:22:19.106Z,4.63
2019-02-28T01:24:50.577Z,4.64
2019-02-28T01:27:21.857Z,4.64
2019-02-28T01:29:52.271Z,4.64
2019-02-28T01:32:23.680Z,4.69
2019-02-28T01:34:55.152Z,4.69
2019-02-28T01:37:25.682Z,4.66
2019-02-28T01:39:57.151Z,4.69
2019-02-28T01:42:28.572Z,4.63
2019-02-28T01:45:00.039Z,4.56
2019-02-28T01:47:31.564Z,4.48
2019-02-28T01:50:02.018Z,4.38
2019-02-28T01:52:32.528Z,4.28
2019-02-28T01:55:06.250Z,4.19
2019-02-28T01:57:42.266Z,4.15
2019-02-28T02:00:11.640Z,4.10
2019-02-28T02:02:42.017Z,4.05
2019-02-28T02:05:16.863Z,4.00
2019-02-28T02:07:46.765Z,4.00
2019-02-28T02:10:21.670Z,3.97
2019-02-28T02:12:52.597Z,3.94
2019-02-28T02:15:25.139Z,3.93
2019-02-28T02:17:57.499Z,3.96
2019-02-28T02:20:28.952Z,3.93
2019-02-28T02:23:00.387Z,3.92
2019-02-28T02:25:31.856Z,3.88
2019-02-28T02:28:03.287Z,3.83
2019-02-28T02:30:34.756Z,3.76
2019-02-28T02:33:06.193Z,3.71
2019-02-28T02:35:42.165Z,3.69
2019-02-28T02:38:09.711Z,3.66
2019-02-28T02:40:41.180Z,3.65
2019-02-28T02:43:13.534Z,3.61
2019-02-28T02:45:44.999Z,3.58
2019-02-28T02:48:15.268Z,3.60
2019-02-28T02:50:47.400Z,3.56
2019-02-28T02:53:17.800Z,3.54
2019-02-28T02:55:49.276Z,3.52
2019-02-28T02:58:26.879Z,3.53
2019-02-28T03:00:52.784Z,3.56
2019-02-28T03:03:25.452Z,3.56
2019-02-28T03:05:56.922Z,3.62
2019-02-28T03:08:35.705Z,3.60
2019-02-28T03:11:00.432Z,3.62
2019-02-28T03:13:31.875Z,3.62
2019-02-28T03:16:03.339Z,3.64
2019-02-28T03:18:34.584Z,3.65
2019-02-28T03:21:05.009Z,3.66
2019-02-28T03:23:39.757Z,3.69
2019-02-28T03:26:09.454Z,3.73
2019-02-28T03:28:39.693Z,3.72
2019-02-28T03:31:14.248Z,3.72
2019-02-28T03:33:43.174Z,3.72
2019-02-28T03:36:15.607Z,3.72
2019-02-28T03:38:49.803Z,3.71
2019-02-28T03:41:19.987Z,3.68
2019-02-28T03:43:51.455Z,3.72
2019-02-28T03:46:22.889Z,3.68
2019-02-28T03:48:53.420Z,3.69
2019-02-28T03:51:28.270Z,3.67
2019-02-28T03:53:56.996Z,3.67
2019-02-28T03:56:28.391Z,3.67
2019-02-28T03:58:59.841Z,3.64
2019-02-28T04:01:31.741Z,3.62
2019-02-28T04:04:02.128Z,3.61
2019-02-28T04:06:39.529Z,3.58
2019-02-28T04:09:08.443Z,3.55
2019-02-28T04:11:39.545Z,3.52
2019-02-28T04:14:11.008Z,3.49
2019-02-28T04:16:42.474Z,3.47
2019-02-28T04:19:13.909Z,3.44
2019-02-28T04:21:46.562Z,3.40
2019-02-28T04:24:17.428Z,3.38
2019-02-28T04:26:48.870Z,3.37
2019-02-28T04:29:20.334Z,3.35
2019-02-28T04:31:52.489Z,3.31
2019-02-28T04:34:22.920Z,3.31
2019-02-28T04:36:54.369Z,3.29
2019-02-28T04:39:25.821Z,3.28
2019-02-28T04:41:57.283Z,3.32
2019-02-28T04:44:29.646Z,3.35
2019-02-28T04:47:03.348Z,3.49
2019-02-28T04:49:34.073Z,3.59
2019-02-28T04:52:04.325Z,3.81
2019-02-28T04:54:35.756Z,3.86
2019-02-28T04:57:07.217Z,3.88
2019-02-28T04:59:39.575Z,3.90
2019-02-28T05:02:11.039Z,3.87
2019-02-28T05:04:42.484Z,3.84
2019-02-28T05:07:13.947Z,3.80
2019-02-28T05:09:48.078Z,3.76
2019-02-28T05:12:18.374Z,3.72
2019-02-28T05:14:49.829Z,3.70
2019-02-28T05:17:22.284Z,3.67
2019-02-28T05:19:55.146Z,3.71
2019-02-28T05:22:27.550Z,3.70
2019-02-28T05:24:57.475Z,3.69
2019-02-28T05:27:34.825Z,3.78
2019-02-28T05:30:00.994Z,3.82
2019-02-28T05:32:32.142Z,3.86
2019-02-28T05:35:04.983Z,3.96
2019-02-28T05:37:35.365Z,4.02
2019-02-28T05:40:10.048Z,4.11
2019-02-28T05:42:40.402Z,4.17
2019-02-28T05:45:14.845Z,4.18
2019-02-28T05:47:46.797Z,4.19
2019-02-28T05:50:17.287Z,4.20
2019-02-28T05:52:47.744Z,4.22
2019-02-28T05:55:24.633Z,4.24
2019-02-28T05:57:51.275Z,4.27
2019-02-28T06:00:24.383Z,4.27
2019-02-28T06:02:58.058Z,4.25
2019-02-28T06:05:26.845Z,4.33
2019-02-28T06:07:57.374Z,4.44
2019-02-28T06:10:28.819Z,5.78
2019-02-28T06:13:00.276Z,6.87
2019-02-28T06:15:34.214Z,8.08
2019-02-28T06:18:05.936Z,8.75
2019-02-28T06:20:38.931Z,8.99
2019-02-28T06:23:10.376Z,9.52
2019-02-28T06:25:41.857Z,10.14
2019-02-28T06:28:13.276Z,10.25
2019-02-28T06:30:44.754Z,10.52
2019-02-28T06:33:16.206Z,10.62
2019-02-28T06:35:49.499Z,10.64
2019-02-28T06:38:19.918Z,11.28
2019-02-28T06:40:50.250Z,11.45
2019-02-28T06:43:21.684Z,11.78
2019-02-28T06:45:52.212Z,11.49
2019-02-28T06:48:25.888Z,11.98
2019-02-28T06:50:55.728Z,11.94
2019-02-28T06:53:26.427Z,12.21
2019-02-28T06:55:56.786Z,12.42
2019-02-28T06:58:33.272Z,12.92
2019-02-28T07:01:03.689Z,13.44
2019-02-28T07:03:39.012Z,13.72
2019-02-28T07:06:07.207Z,13.76
2019-02-28T07:08:39.576Z,14.02
2019-02-28T07:11:11.035Z,14.07
2019-02-28T07:13:41.557Z,14.63
2019-02-28T07:16:13.009Z,14.14
2019-02-28T07:18:44.471Z,13.90
2019-02-28T07:21:16.828Z,14.26
2019-02-28T07:23:48.277Z,14.89
2019-02-28T07:26:20.966Z,16.01
2019-02-28T07:28:52.413Z,15.73
2019-02-28T07:31:24.677Z,15.48
2019-02-28T07:33:55.930Z,15.54
2019-02-28T07:36:26.462Z,15.53
2019-02-28T07:38:57.955Z,15.99
2019-02-28T07:41:29.367Z,15.26
2019-02-28T07:44:00.823Z,15.98
2019-02-28T07:46:31.356Z,15.43
2019-02-28T07:49:02.796Z,16.53
2019-02-28T07:51:33.335Z,16.73
2019-02-28T07:54:03.594Z,16.81
2019-02-28T07:56:34.999Z,17.01
2019-02-28T07:59:06.453Z,16.77
2019-02-28T08:01:37.922Z,16.72
2019-02-28T08:04:09.348Z,16.91
2019-02-28T08:06:40.801Z,16.58
2019-02-28T08:09:21.027Z,16.29
2019-02-28T08:11:51.678Z,16.20
2019-02-28T08:14:23.455Z,15.55
2019-02-28T08:16:55.208Z,15.93
2019-02-28T08:19:27.956Z,16.15
2019-02-28T08:21:59.814Z,15.90
2019-02-28T08:24:30.173Z,16.24
2019-02-28T08:27:01.630Z,15.04
2019-02-28T08:29:33.089Z,15.68
2019-02-28T08:32:07.817Z,16.06
2019-02-28T08:34:37.522Z,14.83
2019-02-28T08:37:11.002Z,15.13
2019-02-28T08:39:42.080Z,15.87
2019-02-28T08:42:12.496Z,15.27
2019-02-28T08:44:43.943Z,15.39
2019-02-28T08:47:17.907Z,15.06
2019-02-28T08:49:47.464Z,15.63
2019-02-28T08:52:18.903Z,14.81
2019-02-28T08:54:49.433Z,15.24
2019-02-28T08:57:21.942Z,13.57
2019-02-28T08:59:52.531Z,12.74
2019-02-28T09:02:23.794Z,12.01
2019-02-28T09:04:55.237Z,11.62
2019-02-28T09:07:26.694Z,11.25
2019-02-28T09:09:58.140Z,11.06
2019-02-28T09:12:33.303Z,11.21
2019-02-28T09:15:02.577Z,11.03
2019-02-28T09:17:35.565Z,10.94
2019-02-28T09:20:10.559Z,11.06
2019-02-28T09:22:42.155Z,11.24
2019-02-28T09:25:21.144Z,11.31
2019-02-28T09:27:47.829Z,11.30
2019-02-28T09:30:34.435Z,11.31
2019-02-28T09:33:06.017Z,11.49
2019-02-28T09:35:37.986Z,11.61
2019-02-28T09:38:13.527Z,11.45
2019-02-28T09:40:44.434Z,11.40
2019-02-28T09:43:15.904Z,11.40
2019-02-28T09:45:49.890Z,11.80
2019-02-28T09:48:20.651Z,11.83
2019-02-28T09:50:57.909Z,11.74
2019-02-28T09:53:25.404Z,11.82
2019-02-28T09:55:55.659Z,11.98
2019-02-28T09:58:29.360Z,12.03
2019-02-28T10:00:58.197Z,12.10
2019-02-28T10:03:29.664Z,12.18
2019-02-28T10:06:00.344Z,12.39
2019-02-28T10:08:33.582Z,12.40
2019-02-28T10:11:02.777Z,12.44
2019-02-28T10:13:34.242Z,12.19
2019-02-28T10:16:05.682Z,12.26
2019-02-28T10:18:38.840Z,12.16
2019-02-28T10:21:10.108Z,12.17
2019-02-28T10:23:40.675Z,12.18
2019-02-28T10:26:14.334Z,12.31
2019-02-28T10:28:45.406Z,12.35
2019-02-28T10:31:17.761Z,12.32
2019-02-28T10:33:49.456Z,12.42
2019-02-28T10:36:23.733Z,12.38
2019-02-28T10:38:55.207Z,12.46
2019-02-28T10:41:28.042Z,12.57
2019-02-28T10:43:58.792Z,12.50
2019-02-28T10:46:29.231Z,12.63
2019-02-28T10:49:00.694Z,12.31
2019-02-28T10:51:32.140Z,12.35
2019-02-28T10:54:03.593Z,12.50
2019-02-28T10:56:33.857Z,12.59
2019-02-28T10:59:05.264Z,12.75
2019-02-28T11:01:41.597Z,12.79
2019-02-28T11:04:10.135Z,12.49
2019-02-28T11:06:40.540Z,12.32
2019-02-28T11:09:15.270Z,12.35
2019-02-28T11:11:46.237Z,12.37
2019-02-28T11:14:17.222Z,12.30
2019-02-28T11:16:47.576Z,12.38
2019-02-28T11:19:19.561Z,12.50
2019-02-28T11:21:49.876Z,12.56
2019-02-28T11:24:23.686Z,12.42
2019-02-28T11:26:53.380Z,12.61
2019-02-28T11:29:24.834Z,12.38
2019-02-28T11:31:55.359Z,12.44
2019-02-28T11:34:25.897Z,12.30
2019-02-28T11:36:57.340Z,12.46
2019-02-28T11:39:30.505Z,12.52
2019-02-28T11:41:59.631Z,12.42
2019-02-28T11:44:30.172Z,12.24
2019-02-28T11:47:01.609Z,12.18
2019-02-28T11:49:33.097Z,12.22
2019-02-28T11:52:04.521Z,12.32
2019-02-28T11:54:37.202Z,12.14
2019-02-28T11:57:08.816Z,12.10
2019-02-28T11:59:39.180Z,12.14
2019-02-28T12:02:10.629Z,12.34
2019-02-28T12:04:42.082Z,12.41
2019-02-28T12:07:13.527Z,12.49
2019-02-28T12:09:45.000Z,12.36
2019-02-28T12:12:15.512Z,12.53
2019-02-28T12:14:46.967Z,12.60
2019-02-28T12:17:18.419Z,12.49
2019-02-28T12:19:50.652Z,12.58
2019-02-28T12:22:22.883Z,12.78
2019-02-28T12:24:55.265Z,12.70
2019-02-28T12:27:29.444Z,12.72
2019-02-28T12:30:01.510Z,12.66
2019-02-28T12:32:32.034Z,12.70
2019-02-28T12:35:04.265Z,12.80
2019-02-28T12:37:34.628Z,12.71
2019-02-28T12:40:11.041Z,12.78
2019-02-28T12:42:41.513Z,12.66
2019-02-28T12:45:17.409Z,12.80
2019-02-28T12:47:47.937Z,12.89
2019-02-28T12:50:19.035Z,12.82
2019-02-28T12:52:50.083Z,12.84
2019-02-28T12:55:21.694Z,12.73
2019-02-28T12:57:54.755Z,12.65
2019-02-28T13:00:30.180Z,12.69
2019-02-28T13:03:00.890Z,12.57
2019-02-28T13:05:33.061Z,12.61
2019-02-28T13:08:05.986Z,12.64
2019-02-28T13:10:37.345Z,12.68
2019-02-28T13:13:08.790Z,12.66
2019-02-28T13:15:39.066Z,12.49
2019-02-28T13:18:09.708Z,12.64
2019-02-28T13:20:40.804Z,12.72
2019-02-28T13:23:11.081Z,12.68
2019-02-28T13:25:41.342Z,12.62
2019-02-28T13:28:11.666Z,12.53
2019-02-28T13:30:49.060Z,12.60
2019-02-28T13:33:15.008Z,12.37
2019-02-28T13:35:47.669Z,12.43
2019-02-28T13:38:19.505Z,12.35
2019-02-28T13:40:50.155Z,12.50
2019-02-28T13:43:22.474Z,12.42
2019-02-28T13:45:55.818Z,12.37
2019-02-28T13:48:26.488Z,12.41
2019-02-28T13:50:59.323Z,12.31
2019-02-28T13:53:30.536Z,12.28
2019-02-28T13:56:00.730Z,12.30
2019-02-28T13:58:31.003Z,12.24
2019-02-28T14:01:01.303Z,12.15
2019-02-28T14:03:31.733Z,12.15
2019-02-28T14:06:02.093Z,12.19
2019-02-28T14:08:32.371Z,12.09
2019-02-28T14:11:05.736Z,12.08
2019-02-28T14:13:34.914Z,12.22
2019-02-28T14:16:05.282Z,12.18
2019-02-28T14:18:35.571Z,12.09
2019-02-28T14:21:06.003Z,12.04
2019-02-28T14:23:37.422Z,12.06
2019-02-28T14:26:08.159Z,12.01
2019-02-28T14:28:38.436Z,11.81
2019-02-28T14:31:10.353Z,11.79
2019-02-28T14:33:40.630Z,11.72
2019-02-28T14:36:11.357Z,11.62
2019-02-28T14:38:41.869Z,11.59
2019-02-28T14:41:12.155Z,11.45
2019-02-28T14:43:43.826Z,11.39
2019-02-28T14:46:18.282Z,11.28
2019-02-28T14:48:50.499Z,11.13
2019-02-28T14:51:25.406Z,11.10
2019-02-28T14:53:58.169Z,11.06
2019-02-28T14:56:31.386Z,11.00
2019-02-28T14:59:01.845Z,10.91
2019-02-28T15:01:34.647Z,10.82
2019-02-28T15:04:07.774Z,10.78
2019-02-28T15:06:47.373Z,10.73
2019-02-28T15:09:18.823Z,10.67
2019-02-28T15:11:49.238Z,10.59
2019-02-28T15:14:19.908Z,10.52
2019-02-28T15:16:50.260Z,10.45
2019-02-28T15:19:24.321Z,10.39
2019-02-28T15:21:54.607Z,10.28
2019-02-28T15:24:26.451Z,10.21
2019-02-28T15:26:57.132Z,10.12
2019-02-28T15:29:27.590Z,10.02
2019-02-28T15:31:58.325Z,9.96
2019-02-28T15:34:34.144Z,9.86
2019-02-28T15:37:06.172Z,9.77
2019-02-28T15:39:37.427Z,9.66
2019-02-28T15:42:09.115Z,9.62
2019-02-28T15:44:39.562Z,9.55
2019-02-28T15:47:12.624Z,9.43
2019-02-28T15:49:43.069Z,9.37
2019-02-28T15:52:14.505Z,9.25
2019-02-28T15:54:46.899Z,9.16
2019-02-28T15:57:19.639Z,9.12
2019-02-28T15:59:50.538Z,9.03
2019-02-28T16:02:20.934Z,8.97
2019-02-28T16:04:51.487Z,8.93
2019-02-28T16:07:22.922Z,8.85
2019-02-28T16:09:54.085Z,8.76
2019-02-28T16:12:27.047Z,8.66
2019-02-28T16:15:01.069Z,8.55
2019-02-28T16:17:33.521Z,8.44
2019-02-28T16:20:08.327Z,8.32
2019-02-28T16:22:41.001Z,8.27
2019-02-28T16:25:15.740Z,8.18
2019-02-28T16:27:49.348Z,8.12
2019-02-28T16:30:22.567Z,8.03
2019-02-28T16:32:55.857Z,7.92
2019-02-28T16:35:26.399Z,7.82
2019-02-28T16:37:59.087Z,7.69
2019-02-28T16:40:31.558Z,7.66
2019-02-28T16:43:01.966Z,7.56
2019-02-28T16:45:44.593Z,7.48
2019-02-28T16:48:18.081Z,7.32
2019-02-28T16:50:50.656Z,7.17
2019-02-28T16:53:23.889Z,7.03
2019-02-28T16:56:02.586Z,6.88
2019-02-28T16:58:35.002Z,6.68
2019-02-28T17:01:11.296Z,6.54
2019-02-28T17:03:49.206Z,6.45
2019-02-28T17:06:20.664Z,6.27
2019-02-28T17:09:05.113Z,6.18
2019-02-28T17:11:42.980Z,6.05
2019-02-28T17:14:15.121Z,5.95
2019-02-28T17:16:47.169Z,5.84
2019-02-28T17:19:18.813Z,5.78
2019-02-28T17:21:52.469Z,5.67
2019-02-28T17:24:22.340Z,5.64
2019-02-28T17:27:06.373Z,5.54
2019-02-28T17:29:39.948Z,5.51
2019-02-28T17:32:10.390Z,5.45
2019-02-28T17:34:42.375Z,5.35
2019-02-28T17:37:13.097Z,5.38
2019-02-28T17:39:43.347Z,5.22
2019-02-28T17:42:16.310Z,5.21
2019-02-28T17:44:55.700Z,5.17
2019-02-28T17:47:39.043Z,5.13
2019-02-28T17:50:24.448Z,5.09
2019-02-28T17:53:00.403Z,5.04
2019-02-28T17:55:41.757Z,4.97
2019-02-28T17:58:34.730Z,4.95
2019-02-28T18:01:43.382Z,4.97
2019-02-28T18:04:36.795Z,4.89
2019-02-28T18:07:39.009Z,4.83
2019-02-28T18:10:35.548Z,4.82
2019-02-28T18:13:11.938Z,4.84
2019-02-28T18:16:04.978Z,4.84
2019-02-28T18:18:54.575Z,4.85
2019-02-28T18:21:46.029Z,4.83
2019-02-28T18:24:41.939Z,4.84
2019-02-28T18:27:24.743Z,4.82
2019-02-28T18:30:31.766Z,4.78
2019-02-28T18:33:10.169Z,4.75
2019-02-28T18:35:39.846Z,4.67
2019-02-28T18:38:11.270Z,4.59
2019-02-28T18:40:42.757Z,4.53
2019-02-28T18:43:13.017Z,4.49
2019-02-28T18:45:43.508Z,4.45
2019-02-28T18:48:17.965Z,4.37
2019-02-28T18:50:49.789Z,4.33
2019-02-28T18:53:21.531Z,4.27
2019-02-28T18:55:56.304Z,4.20
2019-02-28T18:58:26.569Z,4.16
2019-02-28T19:00:58.059Z,4.12
2019-02-28T19:03:29.546Z,4.08
2019-02-28T19:05:59.936Z,4.04
2019-02-28T19:08:31.465Z,4.00
2019-02-28T19:11:03.050Z,3.86
2019-02-28T19:13:33.444Z,3.80
2019-02-28T19:16:07.018Z,3.78
2019-02-28T19:18:40.050Z,3.72
2019-02-28T19:21:10.667Z,3.66
2019-02-28T19:23:41.102Z,3.54
2019-02-28T19:26:12.534Z,3.46
2019-02-28T19:28:44.890Z,3.41
2019-02-28T19:31:21.226Z,3.38
2019-02-28T19:33:54.189Z,3.37
2019-02-28T19:36:26.866Z,3.34
2019-02-28T19:39:01.311Z,3.29
2019-02-28T19:41:36.535Z,3.20
2019-02-28T19:44:06.893Z,3.15
2019-02-28T19:46:37.122Z,3.08
2019-02-28T19:49:12.722Z,3.03
2019-02-28T19:51:46.110Z,3.03
2019-02-28T19:54:16.645Z,3.01
2019-02-28T19:56:48.740Z,3.04
2019-02-28T19:59:20.662Z,3.06
2019-02-28T20:01:51.450Z,3.13
2019-02-28T20:04:21.837Z,3.11
2019-02-28T20:06:52.100Z,3.14
2019-02-28T20:09:22.596Z,3.15
2019-02-28T20:11:52.881Z,3.15
2019-02-28T20:14:23.341Z,3.09
2019-02-28T20:16:54.774Z,3.12
2019-02-28T20:19:26.942Z,3.08
2019-02-28T20:21:58.919Z,3.10
2019-02-28T20:24:30.388Z,3.06
2019-02-28T20:27:00.817Z,2.99
2019-02-28T20:29:31.237Z,2.93
2019-02-28T20:32:02.771Z,2.83
2019-02-28T20:34:34.542Z,2.76
2019-02-28T20:37:09.154Z,2.69
2019-02-28T20:39:40.622Z,2.72
2019-02-28T20:42:19.566Z,2.64
2019-02-28T20:44:49.960Z,2.62
2019-02-28T20:47:29.274Z,2.60
2019-02-28T20:50:02.162Z,2.57
2019-02-28T20:52:42.657Z,2.51
2019-02-28T20:55:16.728Z,2.46
2019-02-28T20:57:47.255Z,2.49
2019-02-28T21:00:19.931Z,2.56
2019-02-28T21:02:50.732Z,2.55
2019-02-28T21:05:22.484Z,2.49
2019-02-28T21:07:54.059Z,2.49
2019-02-28T21:10:25.581Z,2.49
2019-02-28T21:13:03.927Z,2.45
2019-02-28T21:15:43.702Z,2.42
2019-02-28T21:18:17.851Z,2.39
2019-02-28T21:20:50.832Z,2.33
2019-02-28T21:23:23.561Z,2.28
2019-02-28T21:25:54.141Z,2.26
2019-02-28T21:28:28.007Z,2.25
2019-02-28T21:30:58.563Z,2.25
2019-02-28T21:33:30.591Z,2.27
2019-02-28T21:36:10.445Z,2.28
2019-02-28T21:38:43.513Z,2.25
2019-02-28T21:41:15.678Z,2.22
2019-02-28T21:43:46.215Z,2.21
2019-02-28T21:46:19.802Z,2.23
2019-02-28T21:48:50.393Z,2.24
2019-02-28T21:51:21.554Z,2.14
2019-02-28T21:53:52.209Z,2.11
2019-02-28T21:56:25.479Z,2.02
2019-02-28T21:59:01.962Z,1.98
2019-02-28T22:01:32.495Z,1.90
2019-02-28T22:04:03.982Z,1.88
2019-02-28T22:06:37.528Z,1.86
2019-02-28T22:09:08.682Z,1.84
2019-02-28T22:11:46.231Z,1.83
2019-02-28T22:14:24.912Z,1.85
2019-02-28T22:16:55.327Z,1.82
2019-02-28T22:19:26.774Z,1.80
2019-02-28T22:21:58.250Z,1.73
2019-02-28T22:24:29.672Z,1.76
2019-02-28T22:26:59.948Z,1.70
2019-02-28T22:29:30.417Z,1.69
2019-02-28T22:32:06.205Z,1.75
2019-02-28T22:34:39.567Z,1.85
2019-02-28T22:37:10.002Z,1.93
2019-02-28T22:39:41.164Z,1.99
2019-02-28T22:42:21.682Z,2.15
2019-02-28T22:44:45.596Z,2.25
2019-02-28T22:47:17.922Z,2.43
2019-02-28T22:49:48.202Z,2.53
2019-02-28T22:52:19.637Z,2.60
2019-02-28T22:54:50.389Z,2.72
2019-02-28T22:57:20.706Z,2.80
2019-02-28T22:59:52.165Z,2.87
2019-02-28T23:02:23.774Z,2.92
2019-02-28T23:04:55.051Z,2.95
2019-02-28T23:07:26.485Z,2.98
2019-02-28T23:09:56.766Z,3.01
2019-02-28T23:12:27.013Z,2.99
2019-02-28T23:14:58.401Z,3.00
2019-02-28T23:17:31.475Z,3.01
2019-02-28T23:20:01.929Z,3.07
2019-02-28T23:22:33.353Z,3.08
2019-02-28T23:25:05.868Z,3.10
2019-02-28T23:27:37.180Z,3.11
2019-02-28T23:30:33.101Z,3.17
2019-02-28T23:33:05.108Z,3.17
2019-02-28T23:35:35.680Z,3.19
2019-02-28T23:38:06.026Z,3.23
2019-02-28T23:40:36.555Z,3.30
2019-02-28T23:43:07.093Z,3.33
2019-02-28T23:45:38.543Z,3.34
2019-02-28T23:48:09.990Z,3.49
2019-02-28T23:50:41.441Z,3.53
2019-02-28T23:53:12.885Z,3.59
2019-02-28T23:55:44.336Z,3.53
2019-02-28T23:58:15.790Z,3.43
